sensor_id;sensor_type;location;lat;lon;timestamp;P1;durP1;ratioP1;P2;durP2;ratioP2
20527;SDS011;23612;50.894;10.700;2023-03-24T00:00:38;4.75;;;4.05;;
20527;SDS011;23612;50.894;10.700;2023-03-24T00:03:04;4.68;;;3.85;;
20527;SDS011;23612;50.894;10.700;2023-03-24T00:05:29;5.30;;;3.88;;
20527;SDS011;23612;50.894;10.700;2023-03-24T00:07:55;7.28;;;4.38;;
20527;SDS011;23612;50.894;10.700;2023-03-24T00:10:21;4.75;;;3.97;;
20527;SDS011;23612;50.894;10.700;2023-03-24T00:12:47;4.30;;;3.60;;
20527;SDS011;23612;50.894;10.700;2023-03-24T00:15:17;4.05;;;3.65;;
20527;SDS011;23612;50.894;10.700;2023-03-24T00:17:45;5.30;;;4.00;;
20527;SDS011;23612;50.894;10.700;2023-03-24T00:20:14;3.97;;;3.60;;
20527;SDS011;23612;50.894;10.700;2023-03-24T00:22:41;5.45;;;3.75;;
20527;SDS011;23612;50.894;10.700;2023-03-24T00:25:17;4.07;;;3.60;;
20527;SDS011;23612;50.894;10.700;2023-03-24T00:27:51;5.22;;;3.33;;
20527;SDS011;23612;50.894;10.700;2023-03-24T00:30:18;4.00;;;3.60;;
20527;SDS011;23612;50.894;10.700;2023-03-24T00:32:44;7.50;;;3.95;;
20527;SDS011;23612;50.894;10.700;2023-03-24T00:35:12;6.95;;;3.95;;
20527;SDS011;23612;50.894;10.700;2023-03-24T00:37:40;6.53;;;3.20;;
20527;SDS011;23612;50.894;10.700;2023-03-24T00:40:07;6.95;;;3.97;;
20527;SDS011;23612;50.894;10.700;2023-03-24T00:42:38;4.30;;;3.88;;
20527;SDS011;23612;50.894;10.700;2023-03-24T00:45:05;8.02;;;3.78;;
20527;SDS011;23612;50.894;10.700;2023-03-24T00:47:33;5.85;;;3.60;;
20527;SDS011;23612;50.894;10.700;2023-03-24T00:50:05;6.85;;;3.75;;
20527;SDS011;23612;50.894;10.700;2023-03-24T00:52:33;5.70;;;3.80;;
20527;SDS011;23612;50.894;10.700;2023-03-24T00:55:00;5.00;;;3.97;;
20527;SDS011;23612;50.894;10.700;2023-03-24T00:57:28;5.15;;;3.95;;
20527;SDS011;23612;50.894;10.700;2023-03-24T00:59:59;4.75;;;3.55;;
20527;SDS011;23612;50.894;10.700;2023-03-24T01:02:42;3.97;;;3.58;;
20527;SDS011;23612;50.894;10.700;2023-03-24T01:05:10;6.85;;;4.07;;
20527;SDS011;23612;50.894;10.700;2023-03-24T01:07:36;4.75;;;3.75;;
20527;SDS011;23612;50.894;10.700;2023-03-24T01:10:05;4.53;;;3.72;;
20527;SDS011;23612;50.894;10.700;2023-03-24T01:12:33;4.57;;;3.85;;
20527;SDS011;23612;50.894;10.700;2023-03-24T01:15:02;6.13;;;4.20;;
20527;SDS011;23612;50.894;10.700;2023-03-24T01:17:30;4.43;;;3.90;;
20527;SDS011;23612;50.894;10.700;2023-03-24T01:19:56;5.13;;;4.00;;
20527;SDS011;23612;50.894;10.700;2023-03-24T01:22:27;7.07;;;3.90;;
20527;SDS011;23612;50.894;10.700;2023-03-24T01:24:54;4.53;;;3.75;;
20527;SDS011;23612;50.894;10.700;2023-03-24T01:27:20;5.13;;;3.97;;
20527;SDS011;23612;50.894;10.700;2023-03-24T01:29:45;6.60;;;3.42;;
20527;SDS011;23612;50.894;10.700;2023-03-24T01:32:11;4.25;;;3.72;;
20527;SDS011;23612;50.894;10.700;2023-03-24T01:34:37;5.72;;;3.80;;
20527;SDS011;23612;50.894;10.700;2023-03-24T01:37:03;3.85;;;3.53;;
20527;SDS011;23612;50.894;10.700;2023-03-24T01:39:28;5.40;;;3.42;;
20527;SDS011;23612;50.894;10.700;2023-03-24T01:41:54;5.35;;;3.53;;
20527;SDS011;23612;50.894;10.700;2023-03-24T01:46:49;3.85;;;3.45;;
20527;SDS011;23612;50.894;10.700;2023-03-24T01:49:15;6.88;;;3.60;;
20527;SDS011;23612;50.894;10.700;2023-03-24T01:51:42;5.68;;;3.78;;
20527;SDS011;23612;50.894;10.700;2023-03-24T01:54:13;4.53;;;3.03;;
20527;SDS011;23612;50.894;10.700;2023-03-24T01:56:46;3.78;;;3.35;;
20527;SDS011;23612;50.894;10.700;2023-03-24T01:59:21;4.07;;;3.70;;
20527;SDS011;23612;50.894;10.700;2023-03-24T02:01:51;4.28;;;3.15;;
20527;SDS011;23612;50.894;10.700;2023-03-24T02:04:26;4.93;;;3.53;;
20527;SDS011;23612;50.894;10.700;2023-03-24T02:06:58;4.43;;;3.83;;
20527;SDS011;23612;50.894;10.700;2023-03-24T02:09:29;5.93;;;3.33;;
20527;SDS011;23612;50.894;10.700;2023-03-24T02:11:54;5.15;;;3.70;;
20527;SDS011;23612;50.894;10.700;2023-03-24T02:14:20;5.38;;;3.58;;
20527;SDS011;23612;50.894;10.700;2023-03-24T02:21:56;7.00;;;5.68;;
20527;SDS011;23612;50.894;10.700;2023-03-24T02:27:44;8.50;;;6.45;;
20527;SDS011;23612;50.894;10.700;2023-03-24T02:30:32;8.27;;;6.82;;
20527;SDS011;23612;50.894;10.700;2023-03-24T02:47:51;10.35;;;7.25;;
20527;SDS011;23612;50.894;10.700;2023-03-24T02:53:37;8.95;;;7.72;;
20527;SDS011;23612;50.894;10.700;2023-03-24T02:56:35;7.82;;;6.10;;
20527;SDS011;23612;50.894;10.700;2023-03-24T02:59:04;7.03;;;6.32;;
20527;SDS011;23612;50.894;10.700;2023-03-24T03:01:35;6.65;;;5.97;;
20527;SDS011;23612;50.894;10.700;2023-03-24T03:04:08;8.05;;;6.28;;
20527;SDS011;23612;50.894;10.700;2023-03-24T03:06:38;9.25;;;6.55;;
20527;SDS011;23612;50.894;10.700;2023-03-24T03:09:08;7.53;;;6.20;;
20527;SDS011;23612;50.894;10.700;2023-03-24T03:11:37;9.70;;;6.65;;
20527;SDS011;23612;50.894;10.700;2023-03-24T03:14:07;7.03;;;6.15;;
20527;SDS011;23612;50.894;10.700;2023-03-24T03:16:44;7.28;;;6.15;;
20527;SDS011;23612;50.894;10.700;2023-03-24T03:19:19;6.20;;;5.38;;
20527;SDS011;23612;50.894;10.700;2023-03-24T03:21:47;6.90;;;5.22;;
20527;SDS011;23612;50.894;10.700;2023-03-24T03:24:16;5.78;;;5.13;;
20527;SDS011;23612;50.894;10.700;2023-03-24T03:26:50;8.40;;;4.90;;
20527;SDS011;23612;50.894;10.700;2023-03-24T03:29:19;6.70;;;4.95;;
20527;SDS011;23612;50.894;10.700;2023-03-24T03:31:52;5.85;;;4.80;;
20527;SDS011;23612;50.894;10.700;2023-03-24T03:34:33;9.40;;;5.60;;
20527;SDS011;23612;50.894;10.700;2023-03-24T03:37:12;4.65;;;4.15;;
20527;SDS011;23612;50.894;10.700;2023-03-24T03:39:48;5.75;;;4.30;;
20527;SDS011;23612;50.894;10.700;2023-03-24T03:42:19;5.63;;;4.15;;
20527;SDS011;23612;50.894;10.700;2023-03-24T03:44:45;4.80;;;4.28;;
20527;SDS011;23612;50.894;10.700;2023-03-24T03:47:11;6.00;;;5.00;;
20527;SDS011;23612;50.894;10.700;2023-03-24T03:49:39;5.50;;;4.43;;
20527;SDS011;23612;50.894;10.700;2023-03-24T03:52:04;6.20;;;4.75;;
20527;SDS011;23612;50.894;10.700;2023-03-24T03:54:30;6.28;;;4.90;;
20527;SDS011;23612;50.894;10.700;2023-03-24T03:56:56;5.97;;;5.20;;
20527;SDS011;23612;50.894;10.700;2023-03-24T03:59:33;6.60;;;5.10;;
20527;SDS011;23612;50.894;10.700;2023-03-24T04:02:02;7.25;;;5.30;;
20527;SDS011;23612;50.894;10.700;2023-03-24T04:10:30;5.60;;;5.10;;
20527;SDS011;23612;50.894;10.700;2023-03-24T04:15:53;7.22;;;5.47;;
20527;SDS011;23612;50.894;10.700;2023-03-24T04:18:25;9.23;;;5.20;;
20527;SDS011;23612;50.894;10.700;2023-03-24T04:23:50;6.93;;;5.40;;
20527;SDS011;23612;50.894;10.700;2023-03-24T04:26:42;7.22;;;5.18;;
20527;SDS011;23612;50.894;10.700;2023-03-24T04:35:22;7.72;;;5.43;;
20527;SDS011;23612;50.894;10.700;2023-03-24T04:38:02;8.20;;;5.65;;
20527;SDS011;23612;50.894;10.700;2023-03-24T04:40:33;7.75;;;5.30;;
20527;SDS011;23612;50.894;10.700;2023-03-24T04:43:01;7.45;;;5.43;;
20527;SDS011;23612;50.894;10.700;2023-03-24T04:45:31;9.82;;;5.72;;
20527;SDS011;23612;50.894;10.700;2023-03-24T04:48:02;6.32;;;5.15;;
20527;SDS011;23612;50.894;10.700;2023-03-24T04:50:35;7.53;;;5.30;;
20527;SDS011;23612;50.894;10.700;2023-03-24T04:53:03;9.38;;;4.95;;
20527;SDS011;23612;50.894;10.700;2023-03-24T04:58:15;7.35;;;5.45;;
20527;SDS011;23612;50.894;10.700;2023-03-24T05:00:42;6.07;;;5.00;;
20527;SDS011;23612;50.894;10.700;2023-03-24T05:03:09;7.90;;;5.22;;
20527;SDS011;23612;50.894;10.700;2023-03-24T05:05:41;7.65;;;4.72;;
20527;SDS011;23612;50.894;10.700;2023-03-24T05:08:08;7.85;;;4.68;;
20527;SDS011;23612;50.894;10.700;2023-03-24T05:10:34;8.80;;;5.05;;
20527;SDS011;23612;50.894;10.700;2023-03-24T05:13:00;7.63;;;5.45;;
20527;SDS011;23612;50.894;10.700;2023-03-24T05:15:27;9.63;;;5.30;;
20527;SDS011;23612;50.894;10.700;2023-03-24T05:17:52;6.95;;;4.55;;
20527;SDS011;23612;50.894;10.700;2023-03-24T05:20:18;8.10;;;4.53;;
20527;SDS011;23612;50.894;10.700;2023-03-24T05:22:43;4.75;;;4.35;;
20527;SDS011;23612;50.894;10.700;2023-03-24T05:25:09;7.40;;;5.70;;
20527;SDS011;23612;50.894;10.700;2023-03-24T05:27:35;5.50;;;4.90;;
20527;SDS011;23612;50.894;10.700;2023-03-24T05:30:01;5.68;;;4.80;;
20527;SDS011;23612;50.894;10.700;2023-03-24T05:32:28;6.95;;;4.90;;
20527;SDS011;23612;50.894;10.700;2023-03-24T05:34:54;6.38;;;4.43;;
20527;SDS011;23612;50.894;10.700;2023-03-24T05:37:19;10.00;;;4.53;;
20527;SDS011;23612;50.894;10.700;2023-03-24T05:39:45;6.68;;;5.10;;
20527;SDS011;23612;50.894;10.700;2023-03-24T05:42:10;8.52;;;4.93;;
20527;SDS011;23612;50.894;10.700;2023-03-24T05:44:36;7.05;;;5.03;;
20527;SDS011;23612;50.894;10.700;2023-03-24T05:47:01;5.18;;;4.40;;
20527;SDS011;23612;50.894;10.700;2023-03-24T05:49:28;5.90;;;5.10;;
20527;SDS011;23612;50.894;10.700;2023-03-24T05:51:53;8.15;;;4.10;;
20527;SDS011;23612;50.894;10.700;2023-03-24T05:54:20;9.00;;;5.82;;
20527;SDS011;23612;50.894;10.700;2023-03-24T05:56:46;5.20;;;4.47;;
20527;SDS011;23612;50.894;10.700;2023-03-24T05:59:11;6.25;;;4.40;;
20527;SDS011;23612;50.894;10.700;2023-03-24T06:01:37;5.65;;;4.20;;
20527;SDS011;23612;50.894;10.700;2023-03-24T06:04:03;5.07;;;4.43;;
20527;SDS011;23612;50.894;10.700;2023-03-24T06:06:28;6.07;;;4.55;;
20527;SDS011;23612;50.894;10.700;2023-03-24T06:08:54;10.32;;;5.20;;
20527;SDS011;23612;50.894;10.700;2023-03-24T06:11:22;9.07;;;4.93;;
20527;SDS011;23612;50.894;10.700;2023-03-24T06:13:47;10.40;;;4.85;;
20527;SDS011;23612;50.894;10.700;2023-03-24T06:16:13;7.03;;;5.20;;
20527;SDS011;23612;50.894;10.700;2023-03-24T06:18:38;5.90;;;4.70;;
20527;SDS011;23612;50.894;10.700;2023-03-24T06:21:06;6.85;;;4.72;;
20527;SDS011;23612;50.894;10.700;2023-03-24T06:23:32;6.20;;;4.20;;
20527;SDS011;23612;50.894;10.700;2023-03-24T06:25:58;6.57;;;4.80;;
20527;SDS011;23612;50.894;10.700;2023-03-24T06:28:25;5.88;;;4.40;;
20527;SDS011;23612;50.894;10.700;2023-03-24T06:30:54;5.78;;;4.40;;
20527;SDS011;23612;50.894;10.700;2023-03-24T06:33:22;4.72;;;3.70;;
20527;SDS011;23612;50.894;10.700;2023-03-24T06:35:49;5.35;;;4.20;;
20527;SDS011;23612;50.894;10.700;2023-03-24T06:38:15;5.03;;;3.63;;
20527;SDS011;23612;50.894;10.700;2023-03-24T06:40:41;3.75;;;3.42;;
20527;SDS011;23612;50.894;10.700;2023-03-24T06:43:06;4.95;;;3.45;;
20527;SDS011;23612;50.894;10.700;2023-03-24T06:45:32;8.80;;;4.05;;
20527;SDS011;23612;50.894;10.700;2023-03-24T06:47:58;7.82;;;4.00;;
20527;SDS011;23612;50.894;10.700;2023-03-24T06:50:24;3.85;;;3.45;;
20527;SDS011;23612;50.894;10.700;2023-03-24T06:52:57;3.67;;;3.38;;
20527;SDS011;23612;50.894;10.700;2023-03-24T06:55:26;4.07;;;3.30;;
20527;SDS011;23612;50.894;10.700;2023-03-24T06:57:52;6.25;;;3.28;;
20527;SDS011;23612;50.894;10.700;2023-03-24T07:00:18;3.85;;;3.00;;
20527;SDS011;23612;50.894;10.700;2023-03-24T07:02:43;4.32;;;3.20;;
20527;SDS011;23612;50.894;10.700;2023-03-24T07:05:09;4.03;;;2.97;;
20527;SDS011;23612;50.894;10.700;2023-03-24T07:07:36;3.92;;;2.90;;
20527;SDS011;23612;50.894;10.700;2023-03-24T07:10:03;4.88;;;2.60;;
20527;SDS011;23612;50.894;10.700;2023-03-24T07:12:29;3.33;;;2.58;;
20527;SDS011;23612;50.894;10.700;2023-03-24T07:14:55;3.05;;;2.75;;
20527;SDS011;23612;50.894;10.700;2023-03-24T07:17:21;3.30;;;2.83;;
20527;SDS011;23612;50.894;10.700;2023-03-24T07:19:46;3.00;;;2.30;;
20527;SDS011;23612;50.894;10.700;2023-03-24T07:22:12;2.60;;;2.13;;
20527;SDS011;23612;50.894;10.700;2023-03-24T07:24:38;2.22;;;2.03;;
20527;SDS011;23612;50.894;10.700;2023-03-24T07:27:03;5.03;;;2.70;;
20527;SDS011;23612;50.894;10.700;2023-03-24T07:29:29;2.58;;;2.00;;
20527;SDS011;23612;50.894;10.700;2023-03-24T07:31:54;2.28;;;1.80;;
20527;SDS011;23612;50.894;10.700;2023-03-24T07:34:22;3.40;;;2.00;;
20527;SDS011;23612;50.894;10.700;2023-03-24T07:36:48;2.30;;;2.10;;
20527;SDS011;23612;50.894;10.700;2023-03-24T07:39:14;3.58;;;2.05;;
20527;SDS011;23612;50.894;10.700;2023-03-24T07:41:40;3.45;;;2.05;;
20527;SDS011;23612;50.894;10.700;2023-03-24T07:44:05;2.00;;;1.90;;
20527;SDS011;23612;50.894;10.700;2023-03-24T07:46:31;2.40;;;1.90;;
20527;SDS011;23612;50.894;10.700;2023-03-24T07:48:57;2.38;;;2.17;;
20527;SDS011;23612;50.894;10.700;2023-03-24T07:51:22;2.00;;;1.80;;
20527;SDS011;23612;50.894;10.700;2023-03-24T07:53:48;1.90;;;1.70;;
20527;SDS011;23612;50.894;10.700;2023-03-24T07:56:13;2.63;;;1.65;;
20527;SDS011;23612;50.894;10.700;2023-03-24T07:58:39;3.03;;;1.70;;
20527;SDS011;23612;50.894;10.700;2023-03-24T08:01:05;2.25;;;1.73;;
20527;SDS011;23612;50.894;10.700;2023-03-24T08:03:34;2.63;;;1.70;;
20527;SDS011;23612;50.894;10.700;2023-03-24T08:06:00;1.70;;;1.60;;
20527;SDS011;23612;50.894;10.700;2023-03-24T08:08:26;3.08;;;1.83;;
20527;SDS011;23612;50.894;10.700;2023-03-24T08:10:52;1.70;;;1.60;;
20527;SDS011;23612;50.894;10.700;2023-03-24T08:13:17;1.88;;;1.75;;
20527;SDS011;23612;50.894;10.700;2023-03-24T08:15:43;1.90;;;1.80;;
20527;SDS011;23612;50.894;10.700;2023-03-24T08:18:09;1.60;;;1.50;;
20527;SDS011;23612;50.894;10.700;2023-03-24T08:20:34;2.00;;;1.80;;
20527;SDS011;23612;50.894;10.700;2023-03-24T08:23:01;1.75;;;1.65;;
20527;SDS011;23612;50.894;10.700;2023-03-24T08:25:28;1.88;;;1.67;;
20527;SDS011;23612;50.894;10.700;2023-03-24T08:27:55;2.20;;;1.75;;
20527;SDS011;23612;50.894;10.700;2023-03-24T08:30:21;2.95;;;2.00;;
20527;SDS011;23612;50.894;10.700;2023-03-24T08:32:49;3.45;;;2.05;;
20527;SDS011;23612;50.894;10.700;2023-03-24T08:35:21;2.05;;;1.92;;
20527;SDS011;23612;50.894;10.700;2023-03-24T08:37:48;2.13;;;1.92;;
20527;SDS011;23612;50.894;10.700;2023-03-24T08:40:15;2.78;;;2.22;;
20527;SDS011;23612;50.894;10.700;2023-03-24T08:42:46;2.65;;;1.80;;
20527;SDS011;23612;50.894;10.700;2023-03-24T08:45:13;2.22;;;2.03;;
20527;SDS011;23612;50.894;10.700;2023-03-24T08:47:40;1.95;;;1.75;;
20527;SDS011;23612;50.894;10.700;2023-03-24T08:50:07;2.92;;;1.90;;
20527;SDS011;23612;50.894;10.700;2023-03-24T08:52:33;1.88;;;1.67;;
20527;SDS011;23612;50.894;10.700;2023-03-24T08:54:59;3.03;;;2.42;;
20527;SDS011;23612;50.894;10.700;2023-03-24T08:57:25;4.88;;;3.63;;
20527;SDS011;23612;50.894;10.700;2023-03-24T08:59:50;2.50;;;2.30;;
20527;SDS011;23612;50.894;10.700;2023-03-24T09:02:16;2.28;;;2.05;;
20527;SDS011;23612;50.894;10.700;2023-03-24T09:04:41;2.28;;;2.08;;
20527;SDS011;23612;50.894;10.700;2023-03-24T09:07:07;1.90;;;1.80;;
20527;SDS011;23612;50.894;10.700;2023-03-24T09:09:33;3.28;;;2.80;;
20527;SDS011;23612;50.894;10.700;2023-03-24T09:11:59;2.80;;;1.98;;
20527;SDS011;23612;50.894;10.700;2023-03-24T09:14:25;2.08;;;1.60;;
20527;SDS011;23612;50.894;10.700;2023-03-24T09:16:50;4.32;;;1.75;;
20527;SDS011;23612;50.894;10.700;2023-03-24T09:19:16;5.45;;;1.70;;
20527;SDS011;23612;50.894;10.700;2023-03-24T09:21:43;1.70;;;1.60;;
20527;SDS011;23612;50.894;10.700;2023-03-24T09:24:09;2.47;;;1.90;;
20527;SDS011;23612;50.894;10.700;2023-03-24T09:26:35;2.10;;;1.90;;
20527;SDS011;23612;50.894;10.700;2023-03-24T09:29:01;1.90;;;1.60;;
20527;SDS011;23612;50.894;10.700;2023-03-24T09:31:26;2.70;;;1.92;;
20527;SDS011;23612;50.894;10.700;2023-03-24T09:33:52;2.42;;;1.77;;
20527;SDS011;23612;50.894;10.700;2023-03-24T09:36:17;3.65;;;1.50;;
20527;SDS011;23612;50.894;10.700;2023-03-24T09:38:43;1.73;;;1.60;;
20527;SDS011;23612;50.894;10.700;2023-03-24T09:41:14;2.40;;;2.20;;
20527;SDS011;23612;50.894;10.700;2023-03-24T09:43:46;2.45;;;1.55;;
20527;SDS011;23612;50.894;10.700;2023-03-24T09:46:30;2.58;;;1.60;;
20527;SDS011;23612;50.894;10.700;2023-03-24T09:49:00;2.10;;;1.30;;
20527;SDS011;23612;50.894;10.700;2023-03-24T09:51:28;3.00;;;1.40;;
20527;SDS011;23612;50.894;10.700;2023-03-24T09:56:32;2.00;;;1.60;;
20527;SDS011;23612;50.894;10.700;2023-03-24T09:59:05;1.40;;;1.30;;
20527;SDS011;23612;50.894;10.700;2023-03-24T10:01:34;1.35;;;1.20;;
20527;SDS011;23612;50.894;10.700;2023-03-24T10:04:02;2.42;;;1.60;;
20527;SDS011;23612;50.894;10.700;2023-03-24T10:06:38;1.77;;;1.10;;
20527;SDS011;23612;50.894;10.700;2023-03-24T10:09:14;2.25;;;1.40;;
20527;SDS011;23612;50.894;10.700;2023-03-24T10:11:45;1.83;;;1.73;;
20527;SDS011;23612;50.894;10.700;2023-03-24T10:14:40;4.55;;;1.40;;
20527;SDS011;23612;50.894;10.700;2023-03-24T10:19:53;1.48;;;1.38;;
20527;SDS011;23612;50.894;10.700;2023-03-24T10:22:29;1.40;;;1.30;;
20527;SDS011;23612;50.894;10.700;2023-03-24T10:27:56;7.00;;;5.22;;
20527;SDS011;23612;50.894;10.700;2023-03-24T10:30:33;8.82;;;6.50;;
20527;SDS011;23612;50.894;10.700;2023-03-24T10:33:03;6.13;;;3.90;;
20527;SDS011;23612;50.894;10.700;2023-03-24T10:35:30;1.80;;;1.20;;
20527;SDS011;23612;50.894;10.700;2023-03-24T10:38:01;4.78;;;1.42;;
20527;SDS011;23612;50.894;10.700;2023-03-24T10:40:33;3.00;;;1.00;;
20527;SDS011;23612;50.894;10.700;2023-03-24T10:43:00;1.00;;;0.82;;
20527;SDS011;23612;50.894;10.700;2023-03-24T10:45:28;3.90;;;1.73;;
20527;SDS011;23612;50.894;10.700;2023-03-24T10:47:58;1.60;;;1.30;;
20527;SDS011;23612;50.894;10.700;2023-03-24T10:50:26;2.15;;;1.30;;
20527;SDS011;23612;50.894;10.700;2023-03-24T10:52:53;2.97;;;1.55;;
20527;SDS011;23612;50.894;10.700;2023-03-24T10:55:20;4.03;;;1.25;;
20527;SDS011;23612;50.894;10.700;2023-03-24T10:57:49;0.90;;;0.90;;
20527;SDS011;23612;50.894;10.700;2023-03-24T11:00:19;2.28;;;1.30;;
20527;SDS011;23612;50.894;10.700;2023-03-24T11:02:53;2.58;;;1.30;;
20527;SDS011;23612;50.894;10.700;2023-03-24T11:05:39;1.95;;;1.23;;
20527;SDS011;23612;50.894;10.700;2023-03-24T11:10:42;2.35;;;1.30;;
20527;SDS011;23612;50.894;10.700;2023-03-24T11:13:27;4.05;;;1.63;;
20527;SDS011;23612;50.894;10.700;2023-03-24T11:16:05;1.60;;;1.50;;
20527;SDS011;23612;50.894;10.700;2023-03-24T11:18:37;2.13;;;1.30;;
20527;SDS011;23612;50.894;10.700;2023-03-24T11:21:22;2.42;;;1.60;;
20527;SDS011;23612;50.894;10.700;2023-03-24T11:23:48;2.55;;;1.15;;
20527;SDS011;23612;50.894;10.700;2023-03-24T11:26:15;2.75;;;1.38;;
20527;SDS011;23612;50.894;10.700;2023-03-24T11:28:48;5.45;;;1.40;;
20527;SDS011;23612;50.894;10.700;2023-03-24T11:31:23;3.13;;;1.52;;
20527;SDS011;23612;50.894;10.700;2023-03-24T11:33:56;4.13;;;1.13;;
20527;SDS011;23612;50.894;10.700;2023-03-24T11:39:00;2.53;;;1.30;;
20527;SDS011;23612;50.894;10.700;2023-03-24T11:41:33;4.93;;;1.30;;
20527;SDS011;23612;50.894;10.700;2023-03-24T11:44:13;2.58;;;1.58;;
20527;SDS011;23612;50.894;10.700;2023-03-24T11:46:43;4.15;;;1.27;;
20527;SDS011;23612;50.894;10.700;2023-03-24T11:49:35;4.18;;;1.30;;
20527;SDS011;23612;50.894;10.700;2023-03-24T11:52:06;5.53;;;1.40;;
20527;SDS011;23612;50.894;10.700;2023-03-24T11:54:39;2.08;;;1.05;;
20527;SDS011;23612;50.894;10.700;2023-03-24T11:57:10;3.67;;;1.27;;
20527;SDS011;23612;50.894;10.700;2023-03-24T11:59:44;1.85;;;1.05;;
20527;SDS011;23612;50.894;10.700;2023-03-24T12:02:25;3.55;;;1.10;;
20527;SDS011;23612;50.894;10.700;2023-03-24T12:05:16;1.77;;;0.80;;
20527;SDS011;23612;50.894;10.700;2023-03-24T12:10:29;2.35;;;1.27;;
20527;SDS011;23612;50.894;10.700;2023-03-24T12:13:27;3.03;;;0.98;;
20527;SDS011;23612;50.894;10.700;2023-03-24T12:16:20;3.17;;;1.15;;
20527;SDS011;23612;50.894;10.700;2023-03-24T12:21:58;1.27;;;0.80;;
20527;SDS011;23612;50.894;10.700;2023-03-24T12:24:36;1.83;;;1.05;;
20527;SDS011;23612;50.894;10.700;2023-03-24T12:27:17;3.45;;;1.30;;
20527;SDS011;23612;50.894;10.700;2023-03-24T12:30:00;4.88;;;1.50;;
20527;SDS011;23612;50.894;10.700;2023-03-24T12:32:44;3.67;;;1.63;;
20527;SDS011;23612;50.894;10.700;2023-03-24T12:38:08;2.40;;;1.33;;
20527;SDS011;23612;50.894;10.700;2023-03-24T12:43:34;2.75;;;1.10;;
20527;SDS011;23612;50.894;10.700;2023-03-24T12:48:50;1.80;;;1.15;;
20527;SDS011;23612;50.894;10.700;2023-03-24T12:51:28;2.08;;;1.05;;
20527;SDS011;23612;50.894;10.700;2023-03-24T12:54:17;4.28;;;1.40;;
20527;SDS011;23612;50.894;10.700;2023-03-24T12:57:06;3.55;;;1.33;;
20527;SDS011;23612;50.894;10.700;2023-03-24T12:59:39;2.30;;;1.40;;
20527;SDS011;23612;50.894;10.700;2023-03-24T13:02:11;1.42;;;1.00;;
20527;SDS011;23612;50.894;10.700;2023-03-24T13:04:51;4.20;;;1.80;;
20527;SDS011;23612;50.894;10.700;2023-03-24T13:07:21;2.78;;;1.05;;
20527;SDS011;23612;50.894;10.700;2023-03-24T13:09:56;3.83;;;1.50;;
20527;SDS011;23612;50.894;10.700;2023-03-24T13:20:25;3.67;;;1.20;;
20527;SDS011;23612;50.894;10.700;2023-03-24T13:22:56;5.05;;;1.13;;
20527;SDS011;23612;50.894;10.700;2023-03-24T13:25:31;3.63;;;1.17;;
20527;SDS011;23612;50.894;10.700;2023-03-24T13:28:17;2.38;;;1.05;;
20527;SDS011;23612;50.894;10.700;2023-03-24T13:30:49;3.85;;;1.15;;
20527;SDS011;23612;50.894;10.700;2023-03-24T13:33:16;4.00;;;2.30;;
20527;SDS011;23612;50.894;10.700;2023-03-24T13:38:50;16.08;;;8.02;;
20527;SDS011;23612;50.894;10.700;2023-03-24T13:41:21;13.68;;;7.40;;
20527;SDS011;23612;50.894;10.700;2023-03-24T13:43:56;7.85;;;3.90;;
20527;SDS011;23612;50.894;10.700;2023-03-24T13:46:23;2.95;;;2.20;;
20527;SDS011;23612;50.894;10.700;2023-03-24T13:48:50;4.03;;;1.80;;
20527;SDS011;23612;50.894;10.700;2023-03-24T13:51:21;2.42;;;1.50;;
20527;SDS011;23612;50.894;10.700;2023-03-24T13:54:03;5.57;;;1.30;;
20527;SDS011;23612;50.894;10.700;2023-03-24T13:56:38;2.08;;;1.00;;
20527;SDS011;23612;50.894;10.700;2023-03-24T14:04:43;1.88;;;1.00;;
20527;SDS011;23612;50.894;10.700;2023-03-24T14:07:29;2.60;;;1.00;;
20527;SDS011;23612;50.894;10.700;2023-03-24T14:15:16;3.42;;;1.42;;
20527;SDS011;23612;50.894;10.700;2023-03-24T14:17:44;4.30;;;1.50;;
20527;SDS011;23612;50.894;10.700;2023-03-24T14:20:15;4.28;;;1.40;;
20527;SDS011;23612;50.894;10.700;2023-03-24T14:22:49;1.85;;;1.65;;
20527;SDS011;23612;50.894;10.700;2023-03-24T14:25:20;4.40;;;2.05;;
20527;SDS011;23612;50.894;10.700;2023-03-24T14:27:52;9.73;;;2.92;;
20527;SDS011;23612;50.894;10.700;2023-03-24T14:30:30;6.20;;;2.80;;
20527;SDS011;23612;50.894;10.700;2023-03-24T14:32:58;3.30;;;1.60;;
20527;SDS011;23612;50.894;10.700;2023-03-24T14:35:29;8.15;;;2.83;;
20527;SDS011;23612;50.894;10.700;2023-03-24T14:38:03;9.93;;;3.50;;
20527;SDS011;23612;50.894;10.700;2023-03-24T14:40:33;11.15;;;1.80;;
20527;SDS011;23612;50.894;10.700;2023-03-24T14:43:04;6.10;;;2.30;;
20527;SDS011;23612;50.894;10.700;2023-03-24T14:48:34;4.18;;;2.05;;
20527;SDS011;23612;50.894;10.700;2023-03-24T14:51:08;5.40;;;1.90;;
20527;SDS011;23612;50.894;10.700;2023-03-24T14:53:51;4.28;;;1.65;;
20527;SDS011;23612;50.894;10.700;2023-03-24T14:56:21;3.60;;;1.52;;
20527;SDS011;23612;50.894;10.700;2023-03-24T14:58:48;5.15;;;1.70;;
20527;SDS011;23612;50.894;10.700;2023-03-24T15:01:20;3.90;;;1.55;;
20527;SDS011;23612;50.894;10.700;2023-03-24T15:03:59;7.05;;;2.20;;
20527;SDS011;23612;50.894;10.700;2023-03-24T15:06:28;9.10;;;1.45;;
20527;SDS011;23612;50.894;10.700;2023-03-24T15:08:55;6.28;;;2.17;;
20527;SDS011;23612;50.894;10.700;2023-03-24T15:11:23;2.80;;;1.55;;
20527;SDS011;23612;50.894;10.700;2023-03-24T15:13:52;3.85;;;1.58;;
20527;SDS011;23612;50.894;10.700;2023-03-24T15:16:21;4.47;;;1.50;;
20527;SDS011;23612;50.894;10.700;2023-03-24T15:18:52;4.20;;;1.60;;
20527;SDS011;23612;50.894;10.700;2023-03-24T15:29:31;3.95;;;1.52;;
20527;SDS011;23612;50.894;10.700;2023-03-24T15:32:02;7.13;;;2.03;;
20527;SDS011;23612;50.894;10.700;2023-03-24T15:34:29;5.82;;;2.20;;
20527;SDS011;23612;50.894;10.700;2023-03-24T15:36:59;6.35;;;1.88;;
20527;SDS011;23612;50.894;10.700;2023-03-24T15:39:28;4.53;;;1.52;;
20527;SDS011;23612;50.894;10.700;2023-03-24T15:41:57;4.43;;;1.40;;
20527;SDS011;23612;50.894;10.700;2023-03-24T15:44:27;3.28;;;1.75;;
20527;SDS011;23612;50.894;10.700;2023-03-24T15:46:57;4.95;;;2.15;;
20527;SDS011;23612;50.894;10.700;2023-03-24T15:49:25;6.15;;;2.13;;
20527;SDS011;23612;50.894;10.700;2023-03-24T15:51:55;7.07;;;1.92;;
20527;SDS011;23612;50.894;10.700;2023-03-24T15:54:25;5.80;;;2.13;;
20527;SDS011;23612;50.894;10.700;2023-03-24T15:57:12;5.25;;;1.50;;
20527;SDS011;23612;50.894;10.700;2023-03-24T15:59:46;7.80;;;2.17;;
20527;SDS011;23612;50.894;10.700;2023-03-24T16:02:22;6.80;;;2.28;;
20527;SDS011;23612;50.894;10.700;2023-03-24T16:05:00;4.30;;;1.70;;
20527;SDS011;23612;50.894;10.700;2023-03-24T16:07:31;8.68;;;1.90;;
20527;SDS011;23612;50.894;10.700;2023-03-24T16:09:59;3.63;;;1.60;;
20527;SDS011;23612;50.894;10.700;2023-03-24T16:12:31;7.00;;;2.60;;
20527;SDS011;23612;50.894;10.700;2023-03-24T16:14:58;6.30;;;1.67;;
20527;SDS011;23612;50.894;10.700;2023-03-24T16:17:23;8.73;;;2.17;;
20527;SDS011;23612;50.894;10.700;2023-03-24T16:19:49;2.88;;;1.48;;
20527;SDS011;23612;50.894;10.700;2023-03-24T16:22:14;4.95;;;1.85;;
20527;SDS011;23612;50.894;10.700;2023-03-24T16:24:40;7.68;;;1.77;;
20527;SDS011;23612;50.894;10.700;2023-03-24T16:27:07;3.55;;;1.33;;
20527;SDS011;23612;50.894;10.700;2023-03-24T16:29:35;7.75;;;1.60;;
20527;SDS011;23612;50.894;10.700;2023-03-24T16:32:00;5.40;;;1.80;;
20527;SDS011;23612;50.894;10.700;2023-03-24T16:34:26;2.70;;;1.33;;
20527;SDS011;23612;50.894;10.700;2023-03-24T16:36:52;3.78;;;1.83;;
20527;SDS011;23612;50.894;10.700;2023-03-24T16:39:20;5.38;;;1.80;;